Time;durP1;ratioP1;P1;durP2;ratioP2;P2;SDS_P1;SDS_P2;PMS_P1;PMS_P2;Temp;Humidity;BMP_temperature;BMP_pressure;BME280_temperature;BME280_humidity;BME280_pressure;Samples;Min_cycle;Max_cycle;Signal;HPM_P1;HPM_P2
2022/07/23 00:00:31;;;;;;;17.52;15.27;;;18.90;99.90;;;;;;5052762;28;20021;-75
2022/07/23 00:02:57;;;;;;;17.75;15.95;;;18.80;99.90;;;;;;5052575;28;20040;-71
2022/07/23 00:05:22;;;;;;;17.52;15.70;;;18.80;99.90;;;;;;5052762;28;20423;-71
2022/07/23 00:07:48;;;;;;;19.60;15.50;;;18.70;99.90;;;;;;5052417;28;20100;-75
2022/07/23 00:10:14;;;;;;;15.75;13.70;;;18.70;99.90;;;;;;5052424;28;20030;-75
2022/07/23 00:12:40;;;;;;;15.70;13.18;;;18.70;99.90;;;;;;5052555;28;20446;-71
2022/07/23 00:15:07;;;;;;;14.57;11.48;;;18.70;99.90;;;;;;5052208;28;20025;-71
2022/07/23 00:17:33;;;;;;;13.60;11.30;;;18.70;99.90;;;;;;5051179;28;20143;-70
2022/07/23 00:19:58;;;;;;;13.40;10.90;;;18.70;99.90;;;;;;5052303;28;20517;-71
2022/07/23 00:22:24;;;;;;;14.32;12.15;;;18.70;99.90;;;;;;5052092;28;20099;-74
2022/07/23 00:24:50;;;;;;;16.45;14.70;;;18.70;99.90;;;;;;5052226;28;20044;-71
2022/07/23 00:27:15;;;;;;;20.17;16.17;;;18.60;99.90;;;;;;5052392;28;20439;-70
2022/07/23 00:29:41;;;;;;;17.48;13.65;;;18.50;99.90;;;;;;5052297;28;20483;-75
2022/07/23 00:32:07;;;;;;;14.63;13.18;;;18.50;99.90;;;;;;5050810;28;20029;-70
2022/07/23 00:34:32;;;;;;;14.32;12.82;;;18.50;99.90;;;;;;5052085;28;20025;-75
2022/07/23 00:36:58;;;;;;;14.13;12.60;;;18.40;99.90;;;;;;5052216;28;20029;-74
2022/07/23 00:39:24;;;;;;;14.10;11.45;;;18.40;99.90;;;;;;5052081;28;20028;-75
2022/07/23 00:41:50;;;;;;;16.33;13.10;;;18.40;99.90;;;;;;5052134;28;20029;-71
2022/07/23 00:44:22;;;;;;;15.45;13.43;;;18.30;99.90;;;;;;5051761;28;20044;-75
2022/07/23 00:46:52;;;;;;;15.52;13.02;;;18.30;99.90;;;;;;5050741;28;20018;-75
2022/07/23 00:49:29;;;;;;;16.35;12.80;;;18.20;99.90;;;;;;5051929;28;20119;-71
2022/07/23 00:51:56;;;;;;;16.80;12.38;;;18.20;99.90;;;;;;5050712;28;20029;-70
2022/07/23 00:54:24;;;;;;;17.05;13.85;;;18.10;99.90;;;;;;5051677;28;20097;-76
2022/07/23 00:56:50;;;;;;;20.60;18.40;;;18.10;99.90;;;;;;5051589;28;20025;-71
2022/07/23 00:59:16;;;;;;;22.20;16.55;;;18.10;99.90;;;;;;5050478;28;20509;-75
2022/07/23 01:01:44;;;;;;;18.17;14.70;;;18.00;99.90;;;;;;5051708;28;20029;-75
2022/07/23 01:04:10;;;;;;;18.63;15.25;;;18.00;99.90;;;;;;5050060;28;20524;-75
2022/07/23 01:06:38;;;;;;;17.88;16.08;;;18.00;99.90;;;;;;5050366;28;20460;-71
2022/07/23 01:09:06;;;;;;;16.60;14.35;;;18.00;99.90;;;;;;5051634;28;20420;-75
2022/07/23 01:11:34;;;;;;;17.77;14.63;;;17.90;99.90;;;;;;5051435;28;20498;-71
2022/07/23 01:14:07;;;;;;;17.92;15.45;;;17.90;99.90;;;;;;5050271;28;20029;-74
2022/07/23 01:16:32;;;;;;;15.68;13.45;;;18.00;99.90;;;;;;5051421;28;20033;-71
2022/07/23 01:18:58;;;;;;;18.30;14.02;;;18.00;99.90;;;;;;5051430;28;20017;-73
2022/07/23 01:21:25;;;;;;;16.38;14.60;;;18.00;99.90;;;;;;5051037;28;20028;-75
2022/07/23 01:23:50;;;;;;;19.80;13.95;;;18.00;99.90;;;;;;5049987;28;20025;-71
2022/07/23 01:26:17;;;;;;;17.08;15.25;;;18.10;99.90;;;;;;5051228;28;20037;-71
2022/07/23 01:28:43;;;;;;;56.35;44.40;;;18.10;99.90;;;;;;5051283;28;20112;-75
2022/07/23 01:31:08;;;;;;;14.35;12.90;;;18.10;99.90;;;;;;5050992;28;20032;-75
2022/07/23 01:33:34;;;;;;;18.00;14.90;;;18.10;99.90;;;;;;5049846;28;20017;-75
2022/07/23 01:35:59;;;;;;;35.17;25.73;;;18.10;99.90;;;;;;5051082;28;20032;-75
2022/07/23 01:38:25;;;;;;;42.40;37.75;;;18.00;99.90;;;;;;5051169;28;20054;-71
2022/07/23 01:40:51;;;;;;;24.88;22.38;;;18.00;99.90;;;;;;5051178;28;20052;-74
2022/07/23 01:43:17;;;;;;;65.05;58.40;;;18.00;99.90;;;;;;5049796;28;20019;-74
2022/07/23 01:45:44;;;;;;;27.60;24.67;;;17.90;99.90;;;;;;5051020;28;20052;-74
2022/07/23 01:48:09;;;;;;;132.48;113.45;;;17.70;99.90;;;;;;5049644;28;20025;-71
2022/07/23 01:50:35;;;;;;;45.38;39.28;;;17.60;99.90;;;;;;5051143;28;20036;-75
2022/07/23 01:53:01;;;;;;;15.52;13.07;;;17.50;99.90;;;;;;5050895;28;20386;-75
2022/07/23 01:55:26;;;;;;;70.82;57.92;;;17.40;99.90;;;;;;5049650;27;20081;-74
2022/07/23 01:57:52;;;;;;;29.27;26.30;;;17.40;99.90;;;;;;5142789;27;20046;-75
2022/07/23 02:00:18;;;;;;;45.13;40.30;;;17.40;99.90;;;;;;5155582;27;20046;-71
2022/07/23 02:02:44;;;;;;;32.40;23.83;;;17.30;99.90;;;;;;5155891;27;20041;-75
2022/07/23 02:05:10;;;;;;;16.50;14.85;;;17.30;99.90;;;;;;5155518;27;20479;-72
2022/07/23 02:07:35;;;;;;;15.45;13.10;;;17.30;99.90;;;;;;5155811;27;20156;-70
2022/07/23 02:10:01;;;;;;;20.55;16.95;;;17.20;99.90;;;;;;5154307;27;20026;-72
2022/07/23 02:12:27;;;;;;;25.58;22.85;;;17.20;99.90;;;;;;5155198;27;20035;-71
2022/07/23 02:14:52;;;;;;;25.15;20.70;;;17.10;99.90;;;;;;5155167;27;20026;-71
2022/07/23 02:17:18;;;;;;;17.50;15.60;;;17.00;99.90;;;;;;5155461;27;20019;-70
2022/07/23 02:19:44;;;;;;;15.55;13.43;;;17.00;99.90;;;;;;5081189;27;20381;-75
2022/07/23 02:22:09;;;;;;;14.07;12.55;;;16.90;99.90;;;;;;5050318;28;20056;-70
2022/07/23 02:24:35;;;;;;;16.63;14.82;;;16.90;99.90;;;;;;5049028;28;20051;-71
2022/07/23 02:27:00;;;;;;;16.42;14.60;;;16.80;99.90;;;;;;5049184;28;20021;-75
2022/07/23 02:29:26;;;;;;;15.40;13.82;;;16.80;99.90;;;;;;5050345;28;20119;-75
2022/07/23 02:31:52;;;;;;;15.77;14.18;;;16.90;99.90;;;;;;5049031;28;20021;-70
2022/07/23 02:34:17;;;;;;;12.18;11.07;;;17.00;99.90;;;;;;5050228;28;20025;-72
2022/07/23 02:36:43;;;;;;;15.32;12.93;;;17.00;99.90;;;;;;5050151;28;20078;-74
2022/07/23 02:39:09;;;;;;;14.55;13.00;;;16.90;99.90;;;;;;5050441;28;20027;-75
2022/07/23 02:41:34;;;;;;;15.85;13.00;;;16.90;99.90;;;;;;5050142;28;20036;-75
2022/07/23 02:44:00;;;;;;;14.07;11.38;;;16.90;99.90;;;;;;5050100;28;20474;-75
2022/07/23 02:46:26;;;;;;;14.93;11.80;;;16.90;99.90;;;;;;5049938;28;20084;-75
2022/07/23 02:48:51;;;;;;;15.45;12.02;;;16.90;99.90;;;;;;5048956;28;20398;-72
2022/07/23 02:51:17;;;;;;;14.07;12.68;;;16.90;99.90;;;;;;5048669;28;20386;-75
2022/07/23 02:53:43;;;;;;;18.10;13.55;;;16.90;99.90;;;;;;5050090;28;20492;-72
2022/07/23 02:56:09;;;;;;;16.58;13.73;;;16.90;99.90;;;;;;5068124;27;20099;-73
2022/07/23 02:58:34;;;;;;;19.23;14.52;;;16.80;99.90;;;;;;5154695;27;20408;-71
2022/07/23 03:01:00;;;;;;;17.58;13.68;;;16.80;99.90;;;;;;5154688;27;20035;-74
2022/07/23 03:03:26;;;;;;;15.25;13.05;;;16.80;99.90;;;;;;5154703;27;20027;-75
2022/07/23 03:05:52;;;;;;;18.38;13.10;;;16.80;99.90;;;;;;5153010;27;20038;-71
2022/07/23 03:08:17;;;;;;;13.63;12.13;;;16.80;99.90;;;;;;5154521;27;20023;-74
2022/07/23 03:10:43;;;;;;;15.73;13.32;;;16.80;99.90;;;;;;5154522;27;20384;-74
2022/07/23 03:13:09;;;;;;;17.52;14.73;;;16.80;99.90;;;;;;5154443;27;20019;-71
2022/07/23 03:15:34;;;;;;;16.17;13.75;;;16.80;99.90;;;;;;5154306;27;20069;-72
2022/07/23 03:18:00;;;;;;;16.15;12.57;;;16.70;99.90;;;;;;5153320;27;20033;-74
2022/07/23 03:20:26;;;;;;;13.40;12.00;;;16.80;99.90;;;;;;5049428;28;20033;-74
2022/07/23 03:22:51;;;;;;;15.00;12.48;;;16.80;99.90;;;;;;5049582;28;20506;-71
2022/07/23 03:25:17;;;;;;;15.57;12.65;;;16.80;99.90;;;;;;5048512;28;20131;-72
2022/07/23 03:27:45;;;;;;;15.23;12.38;;;16.80;99.90;;;;;;5049297;28;20021;-74
2022/07/23 03:30:11;;;;;;;13.35;11.48;;;16.80;99.90;;;;;;5049513;28;20017;-71
2022/07/23 03:32:37;;;;;;;12.95;11.25;;;16.80;99.90;;;;;;5048159;28;20024;-71
2022/07/23 03:35:04;;;;;;;16.40;13.98;;;16.80;99.90;;;;;;5049414;28;20017;-74
2022/07/23 03:37:29;;;;;;;12.68;11.38;;;16.80;99.90;;;;;;5049658;28;20025;-72
2022/07/23 03:39:55;;;;;;;15.45;12.32;;;16.80;99.90;;;;;;5049558;28;20052;-74
2022/07/23 03:42:21;;;;;;;21.00;15.40;;;16.80;99.90;;;;;;5049137;28;20112;-70
2022/07/23 03:44:46;;;;;;;14.10;11.70;;;16.90;99.90;;;;;;5049295;28;20486;-76
2022/07/23 03:47:12;;;;;;;22.35;16.73;;;17.00;99.90;;;;;;5049330;28;20028;-71
2022/07/23 03:49:38;;;;;;;14.07;11.52;;;17.20;99.90;;;;;;5049193;28;20028;-71
2022/07/23 03:52:04;;;;;;;15.75;12.25;;;17.30;99.90;;;;;;5049165;28;20025;-71
2022/07/23 03:54:29;;;;;;;27.20;18.27;;;17.40;99.90;;;;;;5049199;28;20029;-75
2022/07/23 03:56:55;;;;;;;10.95;9.40;;;17.60;99.90;;;;;;5102835;27;20044;-71
2022/07/23 03:59:21;;;;;;;15.68;12.85;;;17.70;99.90;;;;;;5152469;27;20378;-72
2022/07/23 04:01:47;;;;;;;25.92;16.92;;;17.70;99.90;;;;;;5153886;27;20023;-75
2022/07/23 04:04:13;;;;;;;16.15;13.63;;;17.80;99.90;;;;;;5153778;27;20121;-75
2022/07/23 04:06:38;;;;;;;19.13;14.45;;;17.90;99.90;;;;;;5153740;27;20019;-75
2022/07/23 04:09:04;;;;;;;17.02;12.73;;;18.00;99.90;;;;;;5154028;27;20522;-75
2022/07/23 04:11:30;;;;;;;20.77;15.02;;;18.10;99.90;;;;;;5153787;27;20030;-71
2022/07/23 04:13:55;;;;;;;14.23;10.93;;;18.30;99.90;;;;;;5153694;27;20506;-75
2022/07/23 04:16:21;;;;;;;19.85;14.63;;;18.50;99.90;;;;;;5153673;27;20030;-74
2022/07/23 04:18:47;;;;;;;23.13;15.07;;;18.60;99.90;;;;;;5117373;27;20013;-71
2022/07/23 04:21:13;;;;;;;23.85;16.88;;;18.80;99.90;;;;;;5048633;28;20025;-75
2022/07/23 04:23:38;;;;;;;29.20;19.48;;;18.90;99.90;;;;;;5048767;28;20385;-71
2022/07/23 04:26:04;;;;;;;30.23;19.70;;;19.00;99.90;;;;;;5048775;28;20512;-71
2022/07/23 04:28:30;;;;;;;28.52;18.80;;;19.20;99.90;;;;;;5048738;28;20104;-72
2022/07/23 04:30:59;;;;;;;30.10;20.27;;;19.40;99.90;;;;;;5048659;28;20033;-71
2022/07/23 04:33:24;;;;;;;34.50;20.92;;;19.60;99.90;;;;;;5048701;28;20017;-74
2022/07/23 04:35:50;;;;;;;17.00;15.02;;;19.80;99.90;;;;;;5047737;28;20035;-74
2022/07/23 04:38:16;;;;;;;15.43;12.73;;;19.90;99.90;;;;;;5052443;27;20466;-73
2022/07/23 04:40:41;;;;;;;16.27;12.45;;;20.00;99.90;;;;;;5052102;28;20025;-75
2022/07/23 04:43:07;;;;;;;18.50;15.32;;;20.20;99.90;;;;;;5051984;28;20025;-72
2022/07/23 04:45:33;;;;;;;29.83;22.77;;;20.50;99.90;;;;;;5051946;28;20061;-72
2022/07/23 04:47:59;;;;;;;22.85;18.98;;;20.50;99.90;;;;;;5051744;28;20435;-75
2022/07/23 04:50:24;;;;;;;20.77;16.85;;;20.40;99.90;;;;;;5052229;28;20017;-72
2022/07/23 04:52:50;;;;;;;15.48;13.63;;;20.30;99.90;;;;;;5051911;28;20025;-72
2022/07/23 04:55:16;;;;;;;14.88;12.10;;;20.30;99.90;;;;;;5050690;27;20389;-74
2022/07/23 04:57:42;;;;;;;16.15;13.32;;;20.40;99.90;;;;;;5140036;27;20026;-74
2022/07/23 05:00:09;;;;;;;19.33;14.43;;;20.50;99.90;;;;;;5157106;27;20479;-73
2022/07/23 05:02:35;;;;;;;18.63;14.88;;;20.60;99.90;;;;;;5156826;27;20019;-71
2022/07/23 05:05:00;;;;;;;17.88;14.30;;;20.70;99.90;;;;;;5156981;27;20035;-74
2022/07/23 05:07:26;;;;;;;31.08;23.52;;;20.90;99.90;;;;;;5156694;27;20019;-72
2022/07/23 05:09:52;;;;;;;82.03;52.15;;;21.00;99.90;;;;;;5155480;27;20492;-73
2022/07/23 05:12:17;;;;;;;43.22;29.27;;;21.10;99.90;;;;;;5155202;27;20025;-72
2022/07/23 05:14:43;;;;;;;33.28;23.55;;;21.30;99.90;;;;;;5156761;27;20113;-74
2022/07/23 05:17:09;;;;;;;35.90;24.80;;;21.40;99.90;;;;;;5156648;27;20033;-75
2022/07/23 05:19:35;;;;;;;40.95;28.27;;;21.50;99.90;;;;;;5083928;27;20021;-74
2022/07/23 05:22:01;;;;;;;57.33;40.22;;;21.70;99.90;;;;;;5051288;28;20048;-75
2022/07/23 05:24:27;;;;;;;35.67;24.95;;;21.80;99.90;;;;;;5049958;28;20041;-75
2022/07/23 05:26:53;;;;;;;23.65;18.55;;;22.00;99.90;;;;;;5050088;28;20021;-72
2022/07/23 05:29:18;;;;;;;30.15;21.23;;;22.20;99.90;;;;;;5051357;28;20025;-72
2022/07/23 05:31:44;;;;;;;27.50;20.50;;;22.30;99.90;;;;;;5050262;28;20382;-72
2022/07/23 05:34:10;;;;;;;23.25;18.30;;;22.50;99.90;;;;;;5050958;28;20478;-73
2022/07/23 05:36:35;;;;;;;27.25;20.58;;;22.70;99.10;;;;;;5051287;28;20036;-73
2022/07/23 05:39:02;;;;;;;41.22;28.63;;;22.90;94.40;;;;;;5050098;27;20050;-73
2022/07/23 05:41:27;;;;;;;23.58;15.40;;;23.00;91.40;;;;;;5051071;28;20108;-75
2022/07/23 05:43:53;;;;;;;14.68;12.75;;;23.20;89.30;;;;;;5051014;28;20054;-73
2022/07/23 05:46:19;;;;;;;12.57;11.27;;;23.40;85.10;;;;;;5040677;28;20030;-75
2022/07/23 05:48:49;;;;;;;15.20;12.77;;;23.60;79.00;;;;;;5070615;27;20049;-73
2022/07/23 05:51:23;;;;;;;14.85;11.57;;;23.70;77.70;;;;;;5122210;27;20015;-72
2022/07/23 05:53:49;;;;;;;20.20;12.90;;;23.90;77.00;;;;;;5111451;27;20021;-72
2022/07/23 05:56:15;;;;;;;20.50;14.75;;;24.10;80.80;;;;;;5108224;27;20054;-72
2022/07/23 05:58:41;;;;;;;19.13;14.77;;;24.30;80.50;;;;;;5110787;27;20013;-75
2022/07/23 06:01:06;;;;;;;18.45;14.40;;;24.50;80.80;;;;;;5057735;27;20124;-76
2022/07/23 06:03:32;;;;;;;16.65;12.52;;;24.70;79.60;;;;;;5139021;27;20496;-72
2022/07/23 06:05:58;;;;;;;25.55;16.85;;;24.80;79.50;;;;;;5155582;27;20105;-71
2022/07/23 06:08:23;;;;;;;20.27;14.50;;;25.00;78.00;;;;;;5110143;27;20070;-72
2022/07/23 06:10:49;;;;;;;12.48;11.13;;;25.10;73.50;;;;;;5129590;27;20072;-75
2022/07/23 06:13:17;;;;;;;19.38;12.80;;;25.30;71.40;;;;;;5155207;27;20102;-75
2022/07/23 06:15:42;;;;;;;18.20;14.52;;;25.50;69.50;;;;;;5083142;27;20505;-75
2022/07/23 06:18:08;;;;;;;14.30;12.38;;;25.60;66.50;;;;;;5107585;27;20043;-71
2022/07/23 06:20:34;;;;;;;10.73;9.10;;;25.80;66.20;;;;;;5058757;27;20034;-72
2022/07/23 06:22:59;;;;;;;8.98;7.93;;;25.90;62.10;;;;;;5155063;27;20050;-72
2022/07/23 06:25:25;;;;;;;9.02;8.13;;;26.20;58.40;;;;;;5154898;27;20567;-76
2022/07/23 06:27:51;;;;;;;8.80;7.63;;;26.30;57.20;;;;;;5155035;27;20015;-71
2022/07/23 06:30:18;;;;;;;10.32;7.90;;;26.50;57.60;;;;;;5082890;27;20398;-72
2022/07/23 06:32:48;;;;;;;9.13;8.05;;;26.70;57.00;;;;;;5154541;27;20022;-72
2022/07/23 06:35:14;;;;;;;9.45;7.22;;;26.80;57.60;;;;;;5082396;27;20161;-72
2022/07/23 06:37:40;;;;;;;8.57;7.78;;;27.00;57.90;;;;;;5154969;27;20468;-71
2022/07/23 06:40:06;;;;;;;10.68;8.27;;;27.20;58.10;;;;;;5154920;27;20038;-72
2022/07/23 06:42:31;;;;;;;9.98;8.18;;;27.20;57.50;;;;;;5154722;27;20035;-72
2022/07/23 06:44:57;;;;;;;9.18;8.27;;;27.40;57.70;;;;;;5125661;27;20029;-72
2022/07/23 06:47:23;;;;;;;10.07;8.70;;;27.50;58.20;;;;;;5097250;27;20536;-71
2022/07/23 06:49:50;;;;;;;9.32;8.40;;;27.60;57.80;;;;;;5154083;27;20106;-73
2022/07/23 06:52:15;;;;;;;9.27;7.95;;;27.70;57.50;;;;;;5056412;27;20406;-71
2022/07/23 06:54:41;;;;;;;11.18;8.82;;;27.80;57.90;;;;;;5052676;27;20021;-72
2022/07/23 06:57:07;;;;;;;8.68;7.88;;;27.90;58.20;;;;;;5102535;27;20029;-72
2022/07/23 06:59:33;;;;;;;9.30;8.45;;;28.10;59.10;;;;;;5154220;27;20026;-75
2022/07/23 07:01:59;;;;;;;9.18;8.27;;;28.30;57.80;;;;;;5154217;27;20102;-76
2022/07/23 07:04:24;;;;;;;9.50;6.38;;;28.40;57.80;;;;;;5153604;27;20030;-76
2022/07/23 07:06:50;;;;;;;7.32;6.55;;;28.40;55.20;;;;;;5125717;27;20073;-76
2022/07/23 07:09:16;;;;;;;8.25;7.20;;;28.50;53.30;;;;;;5080441;27;20027;-76
2022/07/23 07:11:41;;;;;;;7.80;6.88;;;28.70;53.00;;;;;;5071238;27;20029;-76
2022/07/23 07:14:07;;;;;;;9.38;7.25;;;28.80;52.40;;;;;;5154011;27;20044;-76
2022/07/23 07:16:33;;;;;;;7.30;6.70;;;29.00;53.30;;;;;;5153920;27;20019;-77
2022/07/23 07:18:58;;;;;;;6.70;6.20;;;28.90;51.40;;;;;;5110200;27;20025;-76
2022/07/23 07:21:24;;;;;;;7.97;7.18;;;29.00;51.90;;;;;;5125578;27;20037;-76
2022/07/23 07:23:50;;;;;;;8.25;7.30;;;29.10;51.60;;;;;;5153881;27;20019;-77
2022/07/23 07:26:15;;;;;;;8.77;7.57;;;29.20;52.00;;;;;;5081624;27;20029;-77
2022/07/23 07:28:41;;;;;;;7.85;7.18;;;29.30;51.60;;;;;;5047873;28;20025;-76
2022/07/23 07:31:06;;;;;;;8.20;7.50;;;29.30;50.50;;;;;;5073902;27;20024;-77
2022/07/23 07:33:32;;;;;;;7.50;6.55;;;29.40;50.80;;;;;;5153524;27;20023;-77
2022/07/23 07:35:58;;;;;;;7.90;6.65;;;29.40;49.80;;;;;;5153920;27;20054;-77
2022/07/23 07:38:24;;;;;;;7.80;7.10;;;29.60;49.30;;;;;;5117430;27;20028;-76
2022/07/23 07:40:50;;;;;;;7.95;7.18;;;29.60;49.50;;;;;;5031385;28;20041;-77
2022/07/23 07:43:15;;;;;;;7.75;6.97;;;29.80;50.60;;;;;;5027718;28;20057;-77
2022/07/23 07:45:41;;;;;;;7.07;6.47;;;29.90;49.80;;;;;;5030781;28;20034;-73
2022/07/23 07:48:07;;;;;;;7.80;6.32;;;30.00;48.10;;;;;;5049087;28;20040;-76
2022/07/23 07:50:32;;;;;;;7.38;6.75;;;30.00;47.70;;;;;;5049108;28;20386;-77
2022/07/23 07:52:58;;;;;;;6.97;6.15;;;30.10;47.00;;;;;;5047491;28;20029;-77
2022/07/23 07:55:24;;;;;;;6.68;6.13;;;30.20;45.90;;;;;;5046891;28;20028;-77
2022/07/23 07:57:49;;;;;;;8.93;6.78;;;30.30;47.20;;;;;;5048012;28;20025;-77
2022/07/23 08:00:16;;;;;;;6.80;6.28;;;30.40;46.40;;;;;;5048065;28;20032;-77
2022/07/23 08:02:51;;;;;;;7.40;6.70;;;30.60;46.60;;;;;;5047595;28;20417;-77
2022/07/23 08:05:27;;;;;;;7.95;6.50;;;30.60;47.70;;;;;;5045591;28;20049;-77
2022/07/23 08:07:52;;;;;;;8.23;7.47;;;30.80;47.70;;;;;;5046833;28;20022;-77
2022/07/23 08:10:19;;;;;;;8.55;7.00;;;30.90;47.50;;;;;;5048900;28;20033;-77
2022/07/23 08:12:47;;;;;;;9.50;7.60;;;30.80;47.30;;;;;;5052083;28;20036;-77
2022/07/23 08:15:14;;;;;;;8.20;7.40;;;31.00;47.60;;;;;;5052316;28;20021;-77
2022/07/23 08:17:41;;;;;;;8.65;7.72;;;31.10;48.50;;;;;;5052546;28;20025;-77
2022/07/23 08:20:08;;;;;;;8.02;7.32;;;31.10;46.50;;;;;;5052289;28;20055;-76
2022/07/23 08:22:42;;;;;;;9.13;7.82;;;31.10;45.30;;;;;;5052306;28;20064;-77
2022/07/23 08:25:09;;;;;;;11.35;7.47;;;31.10;45.70;;;;;;5052197;28;20182;-77
2022/07/23 08:27:34;;;;;;;14.88;8.30;;;31.30;47.40;;;;;;5052205;28;20092;-77
2022/07/23 08:30:00;;;;;;;9.35;7.53;;;31.50;47.50;;;;;;5052311;28;20053;-77
2022/07/23 08:32:26;;;;;;;7.35;6.72;;;31.50;45.50;;;;;;5052104;28;20113;-77
2022/07/23 08:34:52;;;;;;;10.50;7.57;;;31.50;45.10;;;;;;5050805;28;20021;-77
2022/07/23 08:37:17;;;;;;;10.48;7.05;;;31.40;45.30;;;;;;5051953;28;20021;-77
2022/07/23 08:39:43;;;;;;;8.18;7.45;;;31.30;44.80;;;;;;5052044;28;20021;-77
2022/07/23 08:42:08;;;;;;;8.23;7.20;;;31.30;44.00;;;;;;5051889;28;20442;-77
2022/07/23 08:44:35;;;;;;;8.30;7.05;;;31.20;43.40;;;;;;5059267;27;20415;-77
2022/07/23 08:47:02;;;;;;;7.65;6.90;;;31.20;44.10;;;;;;5056284;27;20025;-77
2022/07/23 08:49:29;;;;;;;16.98;11.18;;;31.20;44.40;;;;;;5156888;27;20022;-77
2022/07/23 08:51:55;;;;;;;17.67;8.80;;;31.30;46.10;;;;;;5155269;27;20038;-75
2022/07/23 08:54:22;;;;;;;10.13;7.18;;;31.60;44.20;;;;;;5155287;27;20019;-75
2022/07/23 08:56:48;;;;;;;11.00;7.45;;;31.70;43.30;;;;;;5130336;27;20033;-75
2022/07/23 08:59:14;;;;;;;8.88;7.13;;;31.80;43.70;;;;;;5154978;27;20046;-75
2022/07/23 09:01:40;;;;;;;17.42;15.93;;;31.90;45.30;;;;;;5069129;27;20033;-75
2022/07/23 09:04:06;;;;;;;13.20;11.93;;;31.80;44.60;;;;;;5156622;27;20031;-75
2022/07/23 09:06:31;;;;;;;7.93;7.20;;;31.80;44.90;;;;;;5156381;27;20023;-75
2022/07/23 09:08:57;;;;;;;8.27;7.32;;;31.80;43.10;;;;;;5112153;27;20025;-75
2022/07/23 09:11:23;;;;;;;8.82;6.95;;;31.60;42.90;;;;;;5130577;27;20087;-75
2022/07/23 09:13:52;;;;;;;8.40;7.05;;;31.60;43.50;;;;;;5099328;27;20071;-75
2022/07/23 09:16:19;;;;;;;7.88;7.07;;;31.80;43.40;;;;;;5156079;27;20036;-77
2022/07/23 09:18:44;;;;;;;10.07;8.43;;;31.80;42.80;;;;;;5105041;27;20054;-76
2022/07/23 09:21:13;;;;;;;9.13;8.23;;;31.90;43.50;;;;;;5155829;27;20055;-77
2022/07/23 09:23:41;;;;;;;10.45;6.55;;;32.10;45.20;;;;;;5108053;27;20108;-76
2022/07/23 09:26:30;;;;;;;13.15;7.65;;;32.20;42.60;;;;;;5133265;27;20403;-76
2022/07/23 09:29:13;;;;;;;8.63;7.78;;;32.30;42.70;;;;;;5155923;27;20031;-76
2022/07/23 09:31:52;;;;;;;10.43;7.05;;;32.40;43.60;;;;;;5081469;27;20029;-76
2022/07/23 09:34:24;;;;;;;10.30;9.20;;;32.60;41.90;;;;;;5067006;27;20031;-76
2022/07/23 09:36:51;;;;;;;;;;;32.70;41.60;;;;;;5108029;27;20143;-76
2022/07/23 09:39:25;;;;;;;7.07;6.47;;;32.80;40.60;;;;;;5155737;27;19907;-72
2022/07/23 09:41:51;;;;;;;20.67;15.63;;;32.90;39.60;;;;;;5155482;27;20027;-76
2022/07/23 09:44:19;;;;;;;8.20;7.30;;;32.90;39.70;;;;;;5088991;27;20033;-71
2022/07/23 09:46:47;;;;;;;20.58;15.18;;;32.90;40.70;;;;;;5155816;27;20018;-76
2022/07/23 09:49:17;;;;;;;7.68;6.97;;;32.90;39.60;;;;;;5155784;27;20058;-71
2022/07/23 09:51:57;;;;;;;20.75;14.93;;;33.10;40.50;;;;;;5109071;27;20100;-71
2022/07/23 09:54:34;;;;;;;185.05;26.08;;;33.00;41.30;;;;;;5142617;27;20018;-77
2022/07/23 09:57:16;;;;;;;18.00;9.02;;;33.10;41.30;;;;;;5153718;27;20495;-77
2022/07/23 09:59:46;;;;;;;8.63;7.53;;;33.30;42.30;;;;;;5038104;28;20112;-76
2022/07/23 10:02:14;;;;;;;9.88;8.77;;;33.40;41.70;;;;;;5130382;27;20018;-76
2022/07/23 10:04:41;;;;;;;9.18;8.27;;;33.40;41.00;;;;;;5155407;27;20038;-76
2022/07/23 10:07:09;;;;;;;8.73;7.82;;;33.10;40.00;;;;;;5155451;27;20026;-75
2022/07/23 10:09:40;;;;;;;10.48;8.40;;;32.80;39.90;;;;;;5155533;27;20019;-76
2022/07/23 10:12:15;;;;;;;8.10;7.40;;;32.50;40.80;;;;;;5154758;27;20018;-70
2022/07/23 10:14:41;;;;;;;13.50;12.20;;;32.20;42.50;;;;;;5155224;27;20022;-71
2022/07/23 10:17:07;;;;;;;12.10;10.18;;;32.10;43.20;;;;;;5044781;27;20028;-71
2022/07/23 10:19:33;;;;;;;9.38;8.18;;;32.30;43.90;;;;;;5105849;27;20033;-72
2022/07/23 10:22:08;;;;;;;9.80;8.18;;;32.30;43.10;;;;;;5154710;27;20408;-77
2022/07/23 10:24:49;;;;;;;10.45;9.35;;;32.00;43.40;;;;;;5155082;27;20507;-77
2022/07/23 10:27:42;;;;;;;11.57;9.63;;;32.00;44.40;;;;;;5035241;28;20108;-71
2022/07/23 10:30:20;;;;;;;9.57;8.63;;;32.20;44.90;;;;;;5069406;27;20014;-76
2022/07/23 10:33:19;;;;;;;10.88;9.77;;;32.30;43.90;;;;;;5123490;27;20023;-76
2022/07/23 10:36:01;;;;;;;10.40;9.30;;;32.50;44.00;;;;;;5102312;27;20105;-76
2022/07/23 10:38:37;;;;;;;10.20;9.20;;;32.80;44.30;;;;;;5053410;27;20390;-76
2022/07/23 10:41:04;;;;;;;10.85;9.60;;;32.90;42.40;;;;;;5120413;27;20379;-76
2022/07/23 10:43:31;;;;;;;9.75;8.77;;;33.20;43.10;;;;;;5095672;27;20077;-77
2022/07/23 10:46:19;;;;;;;9.95;9.05;;;33.20;43.00;;;;;;5106438;27;20518;-77
2022/07/23 10:48:45;;;;;;;13.63;9.68;;;33.20;42.50;;;;;;5104371;27;20030;-76
2022/07/23 10:51:15;;;;;;;11.32;9.43;;;33.10;43.60;;;;;;5083270;27;20025;-76
2022/07/23 10:53:54;;;;;;;12.35;9.60;;;32.80;41.60;;;;;;5099836;27;20020;-76
2022/07/23 10:56:47;;;;;;;10.77;9.02;;;32.80;41.50;;;;;;5105523;27;20117;-76
2022/07/23 10:59:13;;;;;;;11.02;9.68;;;32.90;42.10;;;;;;5073247;27;20025;-76
2022/07/23 11:01:39;;;;;;;9.63;8.82;;;33.10;43.80;;;;;;5133584;27;20023;-76
2022/07/23 11:04:07;;;;;;;9.65;8.52;;;33.20;42.80;;;;;;5154182;27;20072;-76
2022/07/23 11:06:48;;;;;;;11.63;9.20;;;33.00;41.90;;;;;;5154390;27;20079;-76
2022/07/23 11:09:26;;;;;;;9.88;9.05;;;33.20;41.80;;;;;;5154467;27;20023;-77
2022/07/23 11:12:21;;;;;;;11.75;9.25;;;33.00;41.10;;;;;;5082022;27;20028;-77
2022/07/23 11:15:12;;;;;;;9.60;8.77;;;33.00;41.30;;;;;;5154299;27;20097;-77
2022/07/23 11:17:45;;;;;;;8.73;8.02;;;33.10;42.90;;;;;;5083651;27;20027;-76
2022/07/23 11:20:11;;;;;;;9.55;8.32;;;33.00;43.60;;;;;;5081927;27;20042;-72
2022/07/23 11:22:46;;;;;;;8.88;8.00;;;33.00;42.70;;;;;;5154008;27;20403;-76
2022/07/23 11:25:21;;;;;;;9.10;8.25;;;32.90;40.10;;;;;;5129929;27;20039;-76
2022/07/23 11:27:49;;;;;;;9.20;8.20;;;33.00;41.80;;;;;;5080440;27;20061;-76
2022/07/23 11:30:27;;;;;;;9.35;8.05;;;33.20;43.40;;;;;;5068144;27;20091;-76
2022/07/23 11:33:12;;;;;;;12.55;7.93;;;33.10;40.60;;;;;;5060790;27;20025;-76
2022/07/23 11:35:40;;;;;;;9.18;8.38;;;33.20;40.20;;;;;;5069110;27;20031;-76
2022/07/23 11:38:12;;;;;;;10.60;8.07;;;33.40;40.60;;;;;;5077864;27;20027;-76
2022/07/23 11:40:39;;;;;;;8.55;7.80;;;33.70;39.80;;;;;;5054784;27;20467;-75
2022/07/23 11:43:07;;;;;;;9.30;7.88;;;33.80;39.20;;;;;;5050385;27;20025;-75
2022/07/23 11:45:37;;;;;;;8.80;7.60;;;33.80;38.20;;;;;;5065014;27;20033;-76
2022/07/23 11:48:05;;;;;;;9.95;8.27;;;33.90;38.50;;;;;;5067975;27;20390;-76
2022/07/23 11:50:31;;;;;;;8.68;7.70;;;33.90;37.50;;;;;;5052724;27;20029;-76
2022/07/23 11:52:57;;;;;;;7.82;7.22;;;33.70;38.10;;;;;;5079864;27;20033;-76
2022/07/23 11:55:23;;;;;;;9.30;8.27;;;33.70;39.90;;;;;;5057263;27;20028;-76
2022/07/23 11:57:52;;;;;;;10.40;7.65;;;33.70;40.30;;;;;;5152882;27;20023;-76
2022/07/23 12:00:24;;;;;;;8.15;7.28;;;33.60;39.80;;;;;;5115943;27;20067;-76
2022/07/23 12:02:58;;;;;;;7.85;7.15;;;33.70;39.30;;;;;;5075744;27;20021;-75
2022/07/23 12:05:28;;;;;;;10.20;7.40;;;33.50;38.60;;;;;;5158023;27;20483;-77
2022/07/23 12:07:55;;;;;;;8.35;7.55;;;33.50;38.30;;;;;;5151831;27;20083;-76
2022/07/23 12:10:22;;;;;;;8.48;7.78;;;33.50;37.70;;;;;;5131129;27;20087;-76
2022/07/23 12:12:53;;;;;;;9.35;8.02;;;33.60;38.60;;;;;;5079724;27;20108;-75
2022/07/23 12:15:23;;;;;;;10.25;8.48;;;33.70;38.90;;;;;;5138265;27;20472;-75
2022/07/23 12:17:50;;;;;;;7.85;7.20;;;33.80;38.80;;;;;;5103341;27;20478;-75
2022/07/23 12:20:21;;;;;;;9.20;8.40;;;34.00;39.10;;;;;;5140641;27;20027;-76
2022/07/23 12:22:49;;;;;;;9.82;8.38;;;34.00;41.00;;;;;;5100293;27;20517;-76
2022/07/23 12:25:17;;;;;;;10.05;8.23;;;33.90;39.40;;;;;;5075602;27;20031;-76
2022/07/23 12:27:44;;;;;;;9.30;8.40;;;33.70;39.70;;;;;;5050069;28;20021;-76
2022/07/23 12:30:28;;;;;;;10.10;8.23;;;33.50;39.80;;;;;;5067454;27;20021;-75
2022/07/23 12:32:57;;;;;;;9.85;8.00;;;33.40;40.40;;;;;;5125862;27;20102;-75
2022/07/23 12:35:29;;;;;;;8.68;7.68;;;33.10;39.60;;;;;;5157387;27;20026;-76
2022/07/23 12:38:00;;;;;;;20.60;18.60;;;33.00;40.20;;;;;;5156594;27;20015;-75